createdAt,value
2022-12-23T00:04:28.883Z,25.90
2022-12-23T00:09:32.676Z,23.70
2022-12-23T00:14:54.765Z,24.80
2022-12-23T00:19:58.312Z,27.30
2022-12-23T00:25:01.620Z,26.80
2022-12-23T00:30:08.047Z,29.80
2022-12-23T00:35:11.873Z,30.70
2022-12-23T00:40:34.514Z,30.70
2022-12-23T00:45:38.347Z,28.30
2022-12-23T00:50:41.856Z,30.90
2022-12-23T00:55:49.010Z,33.60
2022-12-23T01:01:12.937Z,40.40
2022-12-23T01:06:17.392Z,29.30
2022-12-23T01:11:21.415Z,33.40
2022-12-23T01:16:24.892Z,40.30
2022-12-23T01:21:28.493Z,32.20
2022-12-23T01:26:31.918Z,34.90
2022-12-23T01:31:35.582Z,35.40
2022-12-23T01:36:39.300Z,39.70
2022-12-23T01:42:01.631Z,32.80
2022-12-23T01:47:11.974Z,39.60
2022-12-23T01:52:15.403Z,35.80
2022-12-23T01:57:18.828Z,30.80
2022-12-23T02:02:41.187Z,37.70
2022-12-23T02:08:03.927Z,36.40
2022-12-23T02:13:20.106Z,32.40
2022-12-23T02:18:46.359Z,36.80
2022-12-23T02:24:35.373Z,36.00
2022-12-23T02:30:04.856Z,32.70
2022-12-23T02:35:34.007Z,33.60
2022-12-23T02:41:06.923Z,35.80
2022-12-23T02:46:13.831Z,36.60
2022-12-23T02:51:19.854Z,32.40
2022-12-23T02:56:27.151Z,34.70
2022-12-23T03:01:32.710Z,32.70
2022-12-23T03:06:41.588Z,24.50
2022-12-23T03:11:59.044Z,29.50
2022-12-23T03:17:33.807Z,27.00
2022-12-23T03:22:43.515Z,29.30
2022-12-23T03:27:59.120Z,26.90
2022-12-23T03:33:18.499Z,25.90
2022-12-23T03:38:23.106Z,26.10
2022-12-23T03:43:33.420Z,26.80
2022-12-23T03:48:59.160Z,27.00
2022-12-23T03:54:09.467Z,25.00
2022-12-23T03:59:25.426Z,25.10
2022-12-23T04:04:37.607Z,25.70
2022-12-23T04:09:54.585Z,28.70
2022-12-23T04:14:57.935Z,24.40
2022-12-23T04:20:01.226Z,27.20
2022-12-23T04:25:04.919Z,27.30
2022-12-23T04:30:10.743Z,26.20
2022-12-23T04:35:14.685Z,22.80
2022-12-23T04:40:18.153Z,22.60
2022-12-23T04:45:21.460Z,25.50
2022-12-23T04:50:24.835Z,22.60
2022-12-23T04:55:28.513Z,23.40
2022-12-23T05:00:38.950Z,22.50
2022-12-23T05:05:44.495Z,22.90
2022-12-23T05:10:47.937Z,22.30
2022-12-23T05:15:53.312Z,24.10
2022-12-23T05:20:56.886Z,22.80
2022-12-23T05:26:00.378Z,24.70
2022-12-23T05:31:08.151Z,23.70
2022-12-23T05:36:12.558Z,26.00
2022-12-23T05:41:18.539Z,26.00
2022-12-23T05:46:26.497Z,26.80
2022-12-23T05:51:30.600Z,27.20
2022-12-23T05:56:34.115Z,27.50
2022-12-23T06:01:37.614Z,27.90
2022-12-23T06:06:41.623Z,27.90
2022-12-23T06:11:45.121Z,28.90
2022-12-23T06:16:48.563Z,31.20
2022-12-23T06:21:52.237Z,27.70
2022-12-23T06:26:57.510Z,27.20
2022-12-23T06:32:01.212Z,27.60
2022-12-23T06:37:04.773Z,33.50
2022-12-23T06:42:09.767Z,29.20
2022-12-23T06:47:13.780Z,24.90
2022-12-23T06:52:17.427Z,24.70
2022-12-23T06:57:20.714Z,31.70
2022-12-23T07:02:24.642Z,27.90
2022-12-23T07:07:28.319Z,28.50
2022-12-23T07:12:31.802Z,25.40
2022-12-23T07:17:35.075Z,27.60
2022-12-23T07:22:38.651Z,26.00
2022-12-23T07:27:42.213Z,24.30
2022-12-23T07:32:48.656Z,25.10
2022-12-23T07:37:53.709Z,26.40
2022-12-23T07:42:58.964Z,26.70
2022-12-23T07:48:02.656Z,27.70
2022-12-23T07:53:05.795Z,29.90
2022-12-23T07:58:09.123Z,28.20
2022-12-23T08:03:12.721Z,29.40
2022-12-23T08:08:16.487Z,29.00
2022-12-23T08:13:19.928Z,29.90
2022-12-23T08:18:24.029Z,29.70
2022-12-23T08:23:28.451Z,27.30
2022-12-23T08:28:33.069Z,28.90
2022-12-23T08:33:38.440Z,31.20
2022-12-23T08:38:41.837Z,34.20
2022-12-23T08:43:45.665Z,30.60
2022-12-23T08:48:50.186Z,27.70
2022-12-23T08:54:01.084Z,26.60
2022-12-23T08:59:05.898Z,33.30
2022-12-23T09:04:09.384Z,36.80
2022-12-23T09:09:15.880Z,27.90
2022-12-23T09:14:19.338Z,39.00
2022-12-23T09:19:22.656Z,30.90
2022-12-23T09:24:25.927Z,30.10
2022-12-23T09:29:29.161Z,29.30
2022-12-23T09:34:32.513Z,30.20
2022-12-23T09:39:35.813Z,29.90
2022-12-23T09:44:48.711Z,31.80
2022-12-23T09:50:11.040Z,33.20
2022-12-23T09:55:16.096Z,34.20
2022-12-23T10:00:21.835Z,25.80
2022-12-23T10:05:38.008Z,27.70
2022-12-23T10:10:43.153Z,35.20
2022-12-23T10:15:49.912Z,28.80
2022-12-23T10:21:00.530Z,31.20
2022-12-23T10:26:39.822Z,33.60
2022-12-23T10:32:14.230Z,38.70
2022-12-23T10:37:27.870Z,41.30
2022-12-23T10:42:54.124Z,28.70
2022-12-23T10:48:22.738Z,29.50
2022-12-23T10:53:53.848Z,31.00
2022-12-23T10:59:01.099Z,32.10
2022-12-23T11:04:13.516Z,32.60
2022-12-23T11:09:20.769Z,40.30
2022-12-23T11:14:51.762Z,36.20
2022-12-23T11:20:11.324Z,31.90
2022-12-23T11:25:36.044Z,33.00
2022-12-23T11:30:58.584Z,32.90
2022-12-23T11:36:07.859Z,31.30
2022-12-23T11:41:11.312Z,29.50
2022-12-23T11:46:32.888Z,30.30
2022-12-23T11:51:36.381Z,29.80
2022-12-23T11:56:42.062Z,26.70
2022-12-23T12:01:49.260Z,28.90
2022-12-23T12:06:56.588Z,27.40
2022-12-23T12:12:07.578Z,26.80
2022-12-23T12:17:22.398Z,25.60
2022-12-23T12:22:34.544Z,27.40
2022-12-23T12:27:39.812Z,21.90
2022-12-23T12:32:51.426Z,30.00
2022-12-23T12:38:25.349Z,31.70
2022-12-23T12:43:32.302Z,31.70
2022-12-23T12:48:41.355Z,37.30
2022-12-23T12:54:05.838Z,31.30
2022-12-23T12:59:21.565Z,31.70
2022-12-23T13:04:48.775Z,36.40
2022-12-23T13:10:18.436Z,31.30
2022-12-23T13:15:49.674Z,30.60
2022-12-23T13:21:16.834Z,28.00
2022-12-23T13:26:27.902Z,30.30
2022-12-23T13:31:39.093Z,32.70
2022-12-23T13:36:53.855Z,33.40
2022-12-23T13:42:05.215Z,33.00
2022-12-23T13:47:44.939Z,37.60
2022-12-23T13:53:17.822Z,29.20
2022-12-23T13:58:24.623Z,31.10
2022-12-23T14:03:34.169Z,33.80
2022-12-23T14:08:42.728Z,35.30
2022-12-23T14:13:57.762Z,34.50
2022-12-23T14:19:08.811Z,31.60
2022-12-23T14:24:43.047Z,29.60
2022-12-23T14:30:13.635Z,32.30
2022-12-23T14:35:37.020Z,29.70
2022-12-23T14:41:09.178Z,31.80
2022-12-23T14:46:31.363Z,38.40
2022-12-23T14:51:35.880Z,36.90
2022-12-23T14:56:39.042Z,30.10
2022-12-23T15:02:02.809Z,30.90
2022-12-23T15:07:13.712Z,32.40
2022-12-23T15:12:30.185Z,30.80
2022-12-23T15:17:36.624Z,30.50
2022-12-23T15:22:42.098Z,29.00
2022-12-23T15:27:45.444Z,25.90
2022-12-23T15:32:53.104Z,26.80
2022-12-23T15:37:57.690Z,26.40
2022-12-23T15:43:03.475Z,26.00
2022-12-23T15:48:22.778Z,29.80
2022-12-23T15:53:33.104Z,27.00
2022-12-23T15:58:40.691Z,29.20
2022-12-23T16:03:53.048Z,25.30
2022-12-23T16:09:19.905Z,31.30
2022-12-23T16:14:25.381Z,32.20
2022-12-23T16:19:48.922Z,37.10
2022-12-23T16:25:01.608Z,33.10
2022-12-23T16:30:36.143Z,34.60
2022-12-23T16:35:42.187Z,37.20
2022-12-23T16:40:51.681Z,31.30
2022-12-23T16:45:56.840Z,34.30
2022-12-23T16:51:02.687Z,35.10
2022-12-23T16:56:14.249Z,33.50
2022-12-23T17:01:25.082Z,33.80
2022-12-23T17:06:29.019Z,34.40
2022-12-23T17:11:45.570Z,31.50
2022-12-23T17:16:49.821Z,31.70
2022-12-23T17:21:59.272Z,34.00
2022-12-23T17:27:02.807Z,28.60
2022-12-23T17:32:06.340Z,33.10
2022-12-23T17:37:21.033Z,31.00
2022-12-23T17:42:26.117Z,32.50
2022-12-23T17:47:29.778Z,28.20
2022-12-23T17:52:33.315Z,23.60
2022-12-23T17:57:36.653Z,24.70
2022-12-23T18:02:41.569Z,32.30
2022-12-23T18:07:45.058Z,30.40
2022-12-23T18:12:54.006Z,33.30
2022-12-23T18:17:58.385Z,34.70
2022-12-23T18:23:02.288Z,30.90
2022-12-23T18:28:06.046Z,27.90
2022-12-23T18:33:13.501Z,26.20
2022-12-23T18:38:17.813Z,24.50
2022-12-23T18:43:23.956Z,23.80
2022-12-23T18:48:27.363Z,21.90
2022-12-23T18:53:30.836Z,24.70
2022-12-23T18:58:34.800Z,23.90
2022-12-23T19:03:38.125Z,27.50
2022-12-23T19:08:42.856Z,24.00
2022-12-23T19:13:47.155Z,25.30
2022-12-23T19:18:50.672Z,25.70
2022-12-23T19:23:54.078Z,24.50
2022-12-23T19:28:57.386Z,25.60
2022-12-23T19:34:00.844Z,29.50
2022-12-23T19:39:04.300Z,21.90
2022-12-23T19:44:08.093Z,25.80
2022-12-23T19:49:19.119Z,23.20
2022-12-23T19:54:24.022Z,19.50
2022-12-23T19:59:27.719Z,26.30
2022-12-23T20:04:32.274Z,27.80
2022-12-23T20:09:35.889Z,32.40
2022-12-23T20:14:39.365Z,29.00
2022-12-23T20:19:46.221Z,28.80
2022-12-23T20:24:50.281Z,28.20
2022-12-23T20:29:53.757Z,34.20
2022-12-23T20:34:57.228Z,37.30
2022-12-23T20:40:00.697Z,38.60
2022-12-23T20:45:04.505Z,40.90
2022-12-23T20:50:08.172Z,36.80
2022-12-23T20:55:11.409Z,44.60
2022-12-23T21:00:15.113Z,39.10
2022-12-23T21:05:18.357Z,38.80
2022-12-23T21:10:21.696Z,66.80
2022-12-23T21:15:25.047Z,79.20
2022-12-23T21:20:28.316Z,60.70
2022-12-23T21:25:31.962Z,41.50
2022-12-23T21:30:35.278Z,44.70
2022-12-23T21:35:38.568Z,37.60
2022-12-23T21:40:42.136Z,37.70
2022-12-23T21:45:45.355Z,39.00
2022-12-23T21:50:48.632Z,38.50
2022-12-23T21:55:52.350Z,39.90
2022-12-23T22:00:55.812Z,41.10
2022-12-23T22:06:10.110Z,43.60
2022-12-23T22:11:20.153Z,39.90
2022-12-23T22:16:26.032Z,42.40
2022-12-23T22:21:32.077Z,41.00
2022-12-23T22:26:36.066Z,42.30
2022-12-23T22:31:44.809Z,39.80
2022-12-23T22:36:49.190Z,38.30
2022-12-23T22:41:53.082Z,38.50
2022-12-23T22:46:56.885Z,39.30
2022-12-23T22:52:00.419Z,36.70
2022-12-23T22:57:03.799Z,38.40
2022-12-23T23:02:07.154Z,37.40
2022-12-23T23:07:10.595Z,55.20
2022-12-23T23:12:13.999Z,45.90
2022-12-23T23:17:17.402Z,47.30
2022-12-23T23:22:23.348Z,50.50
2022-12-23T23:27:26.796Z,44.40
2022-12-23T23:32:30.334Z,42.00
2022-12-23T23:37:33.837Z,46.30
2022-12-23T23:42:37.053Z,43.00
2022-12-23T23:47:40.720Z,45.10
2022-12-23T23:52:44.199Z,46.40
2022-12-23T23:57:47.525Z,50.20
